sensor_id;sensor_type;location;lat;lon;timestamp;pressure;altitude;pressure_sealevel;temperature;humidity
40117;BME280;25829;50.228;18.936;2023-06-10T00:01:32;98270.28;;;15.35;81.82
40117;BME280;25829;50.228;18.936;2023-06-10T00:04:37;98279.31;;;15.34;81.84
40117;BME280;25829;50.228;18.936;2023-06-10T00:07:37;98277.69;;;15.33;81.76
40117;BME280;25829;50.228;18.936;2023-06-10T00:10:38;98272.63;;;15.31;81.32
40117;BME280;25829;50.228;18.936;2023-06-10T00:13:39;98274.72;;;15.29;81.19
40117;BME280;25829;50.228;18.936;2023-06-10T00:16:40;98280.50;;;15.26;81.21
40117;BME280;25829;50.228;18.936;2023-06-10T00:19:41;98273.38;;;15.27;81.40
40117;BME280;25829;50.228;18.936;2023-06-10T00:22:42;98275.19;;;15.26;81.41
40117;BME280;25829;50.228;18.936;2023-06-10T00:25:46;98275.44;;;15.25;81.24
40117;BME280;25829;50.228;18.936;2023-06-10T00:28:46;98277.50;;;15.23;81.33
40117;BME280;25829;50.228;18.936;2023-06-10T00:31:47;98282.28;;;15.21;81.08
40117;BME280;25829;50.228;18.936;2023-06-10T00:34:48;98271.88;;;15.19;81.17
40117;BME280;25829;50.228;18.936;2023-06-10T00:37:48;98279.31;;;15.17;81.13
40117;BME280;25829;50.228;18.936;2023-06-10T00:40:49;98280.09;;;15.18;80.90
40117;BME280;25829;50.228;18.936;2023-06-10T00:43:52;98282.13;;;15.11;80.98
40117;BME280;25829;50.228;18.936;2023-06-10T00:46:53;98288.63;;;15.03;81.52
40117;BME280;25829;50.228;18.936;2023-06-10T00:49:56;98297.88;;;15.00;81.62
40117;BME280;25829;50.228;18.936;2023-06-10T00:52:59;98296.28;;;14.99;81.63
40117;BME280;25829;50.228;18.936;2023-06-10T00:56:00;98299.75;;;15.00;81.58
40117;BME280;25829;50.228;18.936;2023-06-10T00:59:01;98299.25;;;15.03;81.83
40117;BME280;25829;50.228;18.936;2023-06-10T01:02:03;98290.25;;;15.04;81.67
40117;BME280;25829;50.228;18.936;2023-06-10T01:05:04;98295.06;;;15.07;81.50
40117;BME280;25829;50.228;18.936;2023-06-10T01:11:25;98296.19;;;15.11;81.59
40117;BME280;25829;50.228;18.936;2023-06-10T01:14:29;98295.16;;;15.12;81.60
40117;BME280;25829;50.228;18.936;2023-06-10T01:17:32;98294.13;;;15.13;81.64
40117;BME280;25829;50.228;18.936;2023-06-10T01:20:33;98290.41;;;15.14;81.66
40117;BME280;25829;50.228;18.936;2023-06-10T01:23:34;98296.53;;;15.15;81.54
40117;BME280;25829;50.228;18.936;2023-06-10T01:26:35;98304.25;;;15.16;81.50
40117;BME280;25829;50.228;18.936;2023-06-10T01:30:04;98306.66;;;15.18;81.77
40117;BME280;25829;50.228;18.936;2023-06-10T01:33:07;98298.44;;;15.19;81.87
40117;BME280;25829;50.228;18.936;2023-06-10T01:36:11;98291.28;;;15.20;81.94
40117;BME280;25829;50.228;18.936;2023-06-10T01:39:13;98288.38;;;15.21;81.83
40117;BME280;25829;50.228;18.936;2023-06-10T01:42:16;98296.09;;;15.23;81.76
40117;BME280;25829;50.228;18.936;2023-06-10T01:45:17;98297.75;;;15.24;81.49
40117;BME280;25829;50.228;18.936;2023-06-10T01:48:18;98290.78;;;15.23;81.54
40117;BME280;25829;50.228;18.936;2023-06-10T01:51:19;98299.56;;;15.23;81.52
40117;BME280;25829;50.228;18.936;2023-06-10T01:54:19;98301.19;;;15.24;81.69
40117;BME280;25829;50.228;18.936;2023-06-10T01:57:20;98299.34;;;15.25;81.62
40117;BME280;25829;50.228;18.936;2023-06-10T02:00:21;98308.94;;;15.26;81.59
40117;BME280;25829;50.228;18.936;2023-06-10T02:03:22;98303.41;;;15.27;81.52
40117;BME280;25829;50.228;18.936;2023-06-10T02:06:23;98318.31;;;15.28;81.41
40117;BME280;25829;50.228;18.936;2023-06-10T02:09:24;98308.13;;;15.25;81.22
40117;BME280;25829;50.228;18.936;2023-06-10T02:12:25;98323.25;;;15.25;81.05
40117;BME280;25829;50.228;18.936;2023-06-10T02:15:26;98321.88;;;15.22;81.04
40117;BME280;25829;50.228;18.936;2023-06-10T02:18:27;98316.81;;;15.21;81.33
40117;BME280;25829;50.228;18.936;2023-06-10T02:21:28;98317.84;;;15.20;81.65
40117;BME280;25829;50.228;18.936;2023-06-10T02:24:29;98321.34;;;15.20;81.54
40117;BME280;25829;50.228;18.936;2023-06-10T02:27:30;98319.22;;;15.22;81.58
40117;BME280;25829;50.228;18.936;2023-06-10T02:30:31;98321.66;;;15.24;81.42
40117;BME280;25829;50.228;18.936;2023-06-10T02:33:32;98322.47;;;15.24;81.38
40117;BME280;25829;50.228;18.936;2023-06-10T02:36:34;98316.91;;;15.26;81.64
40117;BME280;25829;50.228;18.936;2023-06-10T02:39:36;98318.75;;;15.25;81.65
40117;BME280;25829;50.228;18.936;2023-06-10T02:42:41;98327.31;;;15.27;81.71
40117;BME280;25829;50.228;18.936;2023-06-10T02:45:42;98327.78;;;15.24;81.94
40117;BME280;25829;50.228;18.936;2023-06-10T02:48:45;98324.06;;;15.25;81.89
40117;BME280;25829;50.228;18.936;2023-06-10T02:51:52;98330.66;;;15.23;81.87
40117;BME280;25829;50.228;18.936;2023-06-10T02:54:54;98328.25;;;15.21;81.90
40117;BME280;25829;50.228;18.936;2023-06-10T02:57:55;98326.13;;;15.23;82.10
40117;BME280;25829;50.228;18.936;2023-06-10T03:00:57;98326.13;;;15.23;82.11
40117;BME280;25829;50.228;18.936;2023-06-10T03:04:00;98324.91;;;15.26;82.16
40117;BME280;25829;50.228;18.936;2023-06-10T03:07:01;98326.28;;;15.28;81.86
40117;BME280;25829;50.228;18.936;2023-06-10T03:10:07;98319.91;;;15.29;82.05
40117;BME280;25829;50.228;18.936;2023-06-10T03:13:10;98317.81;;;15.31;81.99
40117;BME280;25829;50.228;18.936;2023-06-10T03:16:11;98323.19;;;15.37;82.02
40117;BME280;25829;50.228;18.936;2023-06-10T03:19:13;98322.97;;;15.38;82.25
40117;BME280;25829;50.228;18.936;2023-06-10T03:22:18;98334.16;;;15.40;82.18
40117;BME280;25829;50.228;18.936;2023-06-10T03:25:35;98331.00;;;15.43;82.28
40117;BME280;25829;50.228;18.936;2023-06-10T03:28:36;98341.97;;;15.47;82.22
40117;BME280;25829;50.228;18.936;2023-06-10T03:31:37;98341.16;;;15.46;82.28
40117;BME280;25829;50.228;18.936;2023-06-10T03:34:41;98341.16;;;15.46;82.53
40117;BME280;25829;50.228;18.936;2023-06-10T03:37:43;98343.03;;;15.46;82.76
40117;BME280;25829;50.228;18.936;2023-06-10T03:40:44;98349.16;;;15.46;82.68
40117;BME280;25829;50.228;18.936;2023-06-10T03:43:45;98342.44;;;15.44;82.93
40117;BME280;25829;50.228;18.936;2023-06-10T03:46:47;98347.28;;;15.47;83.22
40117;BME280;25829;50.228;18.936;2023-06-10T03:49:48;98354.31;;;15.53;83.04
40117;BME280;25829;50.228;18.936;2023-06-10T03:52:50;98345.75;;;15.51;82.87
40117;BME280;25829;50.228;18.936;2023-06-10T03:55:54;98357.13;;;15.46;83.60
40117;BME280;25829;50.228;18.936;2023-06-10T03:58:57;98352.28;;;15.43;84.21
40117;BME280;25829;50.228;18.936;2023-06-10T04:01:58;98347.59;;;15.50;84.19
40117;BME280;25829;50.228;18.936;2023-06-10T04:04:59;98348.50;;;15.56;84.22
40117;BME280;25829;50.228;18.936;2023-06-10T04:08:00;98347.28;;;15.64;84.35
40117;BME280;25829;50.228;18.936;2023-06-10T04:11:02;98342.78;;;15.64;84.22
40117;BME280;25829;50.228;18.936;2023-06-10T04:14:03;98350.44;;;15.61;84.64
40117;BME280;25829;50.228;18.936;2023-06-10T04:17:05;98351.97;;;15.56;84.93
40117;BME280;25829;50.228;18.936;2023-06-10T04:20:10;98358.88;;;15.58;85.00
40117;BME280;25829;50.228;18.936;2023-06-10T04:23:13;98352.06;;;15.62;85.01
40117;BME280;25829;50.228;18.936;2023-06-10T04:26:16;98355.34;;;15.69;84.91
40117;BME280;25829;50.228;18.936;2023-06-10T04:29:17;98355.41;;;15.74;84.67
40117;BME280;25829;50.228;18.936;2023-06-10T04:32:18;98362.34;;;15.75;84.20
40117;BME280;25829;50.228;18.936;2023-06-10T04:35:19;98354.94;;;15.77;84.45
40117;BME280;25829;50.228;18.936;2023-06-10T04:38:22;98361.16;;;15.83;84.68
40117;BME280;25829;50.228;18.936;2023-06-10T04:41:22;98351.63;;;15.87;84.56
40117;BME280;25829;50.228;18.936;2023-06-10T04:44:24;98353.06;;;15.94;84.41
40117;BME280;25829;50.228;18.936;2023-06-10T04:47:26;98358.94;;;15.96;84.00
40117;BME280;25829;50.228;18.936;2023-06-10T04:50:27;98358.94;;;15.96;83.69
40117;BME280;25829;50.228;18.936;2023-06-10T04:53:27;98348.53;;;15.95;83.82
40117;BME280;25829;50.228;18.936;2023-06-10T04:56:30;98353.63;;;15.96;83.88
40117;BME280;25829;50.228;18.936;2023-06-10T04:59:30;98361.84;;;15.95;83.24
40117;BME280;25829;50.228;18.936;2023-06-10T05:02:31;98364.00;;;15.98;83.34
40117;BME280;25829;50.228;18.936;2023-06-10T05:05:32;98362.16;;;15.98;82.96
40117;BME280;25829;50.228;18.936;2023-06-10T05:08:33;98365.63;;;15.99;83.16
40117;BME280;25829;50.228;18.936;2023-06-10T05:11:34;98362.47;;;16.02;83.06
40117;BME280;25829;50.228;18.936;2023-06-10T05:14:35;98363.84;;;16.04;83.29
40117;BME280;25829;50.228;18.936;2023-06-10T05:17:35;98367.31;;;16.05;82.86
40117;BME280;25829;50.228;18.936;2023-06-10T05:20:36;98372.88;;;16.03;83.10
40117;BME280;25829;50.228;18.936;2023-06-10T05:23:37;98370.53;;;16.07;83.57
40117;BME280;25829;50.228;18.936;2023-06-10T05:26:38;98374.13;;;16.18;83.72
40117;BME280;25829;50.228;18.936;2023-06-10T05:29:39;98374.31;;;16.28;83.74
40117;BME280;25829;50.228;18.936;2023-06-10T05:32:40;98371.19;;;16.36;83.65
40117;BME280;25829;50.228;18.936;2023-06-10T05:35:41;98366.19;;;16.40;83.00
40117;BME280;25829;50.228;18.936;2023-06-10T05:38:42;98364.41;;;16.45;83.00
40117;BME280;25829;50.228;18.936;2023-06-10T05:41:43;98372.44;;;16.50;82.73
40117;BME280;25829;50.228;18.936;2023-06-10T05:44:46;98378.34;;;16.53;82.17
40117;BME280;25829;50.228;18.936;2023-06-10T05:47:47;98380.44;;;16.50;82.10
40117;BME280;25829;50.228;18.936;2023-06-10T05:50:50;98378.56;;;16.51;81.84
40117;BME280;25829;50.228;18.936;2023-06-10T05:53:51;98393.44;;;16.47;81.55
40117;BME280;25829;50.228;18.936;2023-06-10T05:56:52;98394.50;;;16.46;81.69
40117;BME280;25829;50.228;18.936;2023-06-10T05:59:53;98398.75;;;16.47;82.01
40117;BME280;25829;50.228;18.936;2023-06-10T06:02:54;98392.06;;;16.44;81.72
40117;BME280;25829;50.228;18.936;2023-06-10T06:05:55;98399.81;;;16.46;81.90
40117;BME280;25829;50.228;18.936;2023-06-10T06:08:55;98397.78;;;16.53;81.91
40117;BME280;25829;50.228;18.936;2023-06-10T06:11:56;98401.81;;;16.56;81.20
40117;BME280;25829;50.228;18.936;2023-06-10T06:14:57;98398.13;;;16.62;81.36
40117;BME280;25829;50.228;18.936;2023-06-10T06:17:58;98396.84;;;16.64;81.54
40117;BME280;25829;50.228;18.936;2023-06-10T06:21:01;98402.28;;;16.74;81.41
40117;BME280;25829;50.228;18.936;2023-06-10T06:24:07;98400.72;;;16.79;81.21
40117;BME280;25829;50.228;18.936;2023-06-10T06:33:33;98409.47;;;16.74;80.21
40117;BME280;25829;50.228;18.936;2023-06-10T06:36:34;98426.25;;;16.74;80.54
40117;BME280;25829;50.228;18.936;2023-06-10T06:39:35;98431.59;;;16.74;80.78
40117;BME280;25829;50.228;18.936;2023-06-10T06:42:36;98447.44;;;16.64;80.95
40117;BME280;25829;50.228;18.936;2023-06-10T06:45:50;98443.16;;;16.41;81.41
40117;BME280;25829;50.228;18.936;2023-06-10T06:48:51;98452.53;;;16.27;81.65
40117;BME280;25829;50.228;18.936;2023-06-10T06:51:52;98457.28;;;16.08;82.25
40117;BME280;25829;50.228;18.936;2023-06-10T06:54:53;98457.63;;;15.95;82.71
40117;BME280;25829;50.228;18.936;2023-06-10T06:57:54;98449.16;;;15.81;83.39
40117;BME280;25829;50.228;18.936;2023-06-10T07:00:54;98449.88;;;15.76;84.03
40117;BME280;25829;50.228;18.936;2023-06-10T07:03:57;98449.09;;;15.76;84.30
40117;BME280;25829;50.228;18.936;2023-06-10T07:06:57;98451.16;;;15.74;84.32
40117;BME280;25829;50.228;18.936;2023-06-10T07:09:58;98458.34;;;15.73;84.80
40117;BME280;25829;50.228;18.936;2023-06-10T07:12:59;98456.75;;;15.72;84.65
40117;BME280;25829;50.228;18.936;2023-06-10T07:16:00;98454.41;;;15.76;85.31
40117;BME280;25829;50.228;18.936;2023-06-10T07:19:01;98459.16;;;15.74;85.24
40117;BME280;25829;50.228;18.936;2023-06-10T07:22:02;98457.06;;;15.76;85.81
40117;BME280;25829;50.228;18.936;2023-06-10T07:25:14;98460.84;;;15.80;86.06
40117;BME280;25829;50.228;18.936;2023-06-10T07:28:16;98462.56;;;15.86;86.69
40117;BME280;25829;50.228;18.936;2023-06-10T07:31:16;98468.25;;;15.95;86.65
40117;BME280;25829;50.228;18.936;2023-06-10T07:34:17;98462.19;;;15.99;86.22
40117;BME280;25829;50.228;18.936;2023-06-10T07:37:18;98464.16;;;16.04;86.64
40117;BME280;25829;50.228;18.936;2023-06-10T07:40:52;98469.06;;;16.12;86.67
40117;BME280;25829;50.228;18.936;2023-06-10T07:43:53;98470.44;;;16.15;86.35
40117;BME280;25829;50.228;18.936;2023-06-10T07:46:57;98464.63;;;16.18;85.81
40117;BME280;25829;50.228;18.936;2023-06-10T07:50:10;98461.72;;;16.19;85.56
40117;BME280;25829;50.228;18.936;2023-06-10T07:53:20;98473.03;;;16.26;85.83
40117;BME280;25829;50.228;18.936;2023-06-10T07:56:33;98473.44;;;16.35;85.97
40117;BME280;25829;50.228;18.936;2023-06-10T07:59:33;98472.47;;;16.41;85.89
40117;BME280;25829;50.228;18.936;2023-06-10T08:03:02;98475.97;;;16.47;85.50
40117;BME280;25829;50.228;18.936;2023-06-10T08:06:03;98477.66;;;16.53;85.70
40117;BME280;25829;50.228;18.936;2023-06-10T08:09:03;98476.19;;;16.62;85.08
40117;BME280;25829;50.228;18.936;2023-06-10T08:12:05;98480.84;;;16.72;84.73
40117;BME280;25829;50.228;18.936;2023-06-10T08:15:07;98483.72;;;16.87;85.06
40117;BME280;25829;50.228;18.936;2023-06-10T08:18:08;98480.66;;;17.01;84.56
40117;BME280;25829;50.228;18.936;2023-06-10T08:21:09;98478.13;;;17.11;83.31
40117;BME280;25829;50.228;18.936;2023-06-10T08:24:10;98471.59;;;17.24;83.77
40117;BME280;25829;50.228;18.936;2023-06-10T08:27:10;98484.56;;;17.37;83.19
40117;BME280;25829;50.228;18.936;2023-06-10T08:30:11;98476.63;;;17.42;82.69
40117;BME280;25829;50.228;18.936;2023-06-10T08:33:16;98486.44;;;17.41;82.11
40117;BME280;25829;50.228;18.936;2023-06-10T08:36:26;98487.31;;;17.47;82.75
40117;BME280;25829;50.228;18.936;2023-06-10T08:39:27;98489.59;;;17.60;82.66
40117;BME280;25829;50.228;18.936;2023-06-10T08:42:38;98489.81;;;17.86;82.99
40117;BME280;25829;50.228;18.936;2023-06-10T08:45:42;98491.97;;;18.21;82.27
40117;BME280;25829;50.228;18.936;2023-06-10T08:48:44;98492.09;;;18.42;80.36
40117;BME280;25829;50.228;18.936;2023-06-10T08:51:48;98492.84;;;18.74;80.54
40117;BME280;25829;50.228;18.936;2023-06-10T08:54:59;98485.63;;;19.43;81.16
40117;BME280;25829;50.228;18.936;2023-06-10T08:58:00;98479.53;;;20.03;79.29
40117;BME280;25829;50.228;18.936;2023-06-10T09:01:01;98491.81;;;20.56;76.99
40117;BME280;25829;50.228;18.936;2023-06-10T09:04:02;98487.59;;;21.09;77.21
40117;BME280;25829;50.228;18.936;2023-06-10T09:07:03;98492.59;;;21.70;74.20
40117;BME280;25829;50.228;18.936;2023-06-10T09:10:05;98490.06;;;21.89;70.49
40117;BME280;25829;50.228;18.936;2023-06-10T09:13:07;98489.41;;;21.68;67.51
40117;BME280;25829;50.228;18.936;2023-06-10T09:16:08;98499.59;;;21.27;69.86
40117;BME280;25829;50.228;18.936;2023-06-10T09:19:12;98501.75;;;21.25;71.54
40117;BME280;25829;50.228;18.936;2023-06-10T09:22:15;98493.94;;;21.73;72.47
40117;BME280;25829;50.228;18.936;2023-06-10T09:25:16;98495.94;;;22.26;70.55
40117;BME280;25829;50.228;18.936;2023-06-10T09:28:18;98486.03;;;22.79;69.77
40117;BME280;25829;50.228;18.936;2023-06-10T09:31:19;98486.66;;;23.14;68.66
40117;BME280;25829;50.228;18.936;2023-06-10T09:34:25;98479.13;;;23.73;69.22
40117;BME280;25829;50.228;18.936;2023-06-10T09:37:26;98483.16;;;24.08;65.44
40117;BME280;25829;50.228;18.936;2023-06-10T09:40:27;98491.66;;;24.15;65.46
40117;BME280;25829;50.228;18.936;2023-06-10T09:43:42;98489.72;;;24.48;64.29
40117;BME280;25829;50.228;18.936;2023-06-10T09:46:46;98495.94;;;24.76;60.32
40117;BME280;25829;50.228;18.936;2023-06-10T09:49:48;98494.25;;;24.67;62.24
40117;BME280;25829;50.228;18.936;2023-06-10T09:52:50;98485.78;;;24.41;60.82
40117;BME280;25829;50.228;18.936;2023-06-10T09:55:52;98490.94;;;23.91;61.30
40117;BME280;25829;50.228;18.936;2023-06-10T09:58:53;98490.53;;;23.65;61.84
40117;BME280;25829;50.228;18.936;2023-06-10T10:01:57;98495.34;;;23.30;62.26
40117;BME280;25829;50.228;18.936;2023-06-10T10:05:04;98485.50;;;22.77;61.16
40117;BME280;25829;50.228;18.936;2023-06-10T10:08:05;98489.03;;;22.44;63.33
40117;BME280;25829;50.228;18.936;2023-06-10T10:11:06;98485.09;;;22.36;63.99
40117;BME280;25829;50.228;18.936;2023-06-10T10:14:07;98496.00;;;22.21;61.40
40117;BME280;25829;50.228;18.936;2023-06-10T10:17:11;98485.50;;;21.85;58.03
40117;BME280;25829;50.228;18.936;2023-06-10T10:20:14;98490.56;;;21.57;61.37
40117;BME280;25829;50.228;18.936;2023-06-10T10:23:32;98488.72;;;21.53;61.94
40117;BME280;25829;50.228;18.936;2023-06-10T10:26:35;98484.13;;;21.58;62.44
40117;BME280;25829;50.228;18.936;2023-06-10T10:29:39;98477.28;;;21.71;61.72
40117;BME280;25829;50.228;18.936;2023-06-10T10:32:45;98482.88;;;21.80;61.13
40117;BME280;25829;50.228;18.936;2023-06-10T10:35:51;98481.16;;;21.60;60.06
40117;BME280;25829;50.228;18.936;2023-06-10T10:38:54;98472.16;;;21.40;60.56
40117;BME280;25829;50.228;18.936;2023-06-10T10:41:56;98485.16;;;21.23;60.93
40117;BME280;25829;50.228;18.936;2023-06-10T10:44:58;98484.22;;;20.88;60.21
40117;BME280;25829;50.228;18.936;2023-06-10T10:48:08;98483.72;;;20.71;60.82
40117;BME280;25829;50.228;18.936;2023-06-10T10:51:22;98489.41;;;20.49;59.99
40117;BME280;25829;50.228;18.936;2023-06-10T10:54:36;98483.22;;;20.38;60.53
40117;BME280;25829;50.228;18.936;2023-06-10T10:57:40;98473.34;;;20.28;61.79
40117;BME280;25829;50.228;18.936;2023-06-10T11:00:44;98470.09;;;20.42;62.08
40117;BME280;25829;50.228;18.936;2023-06-10T11:03:48;98464.22;;;20.50;61.54
40117;BME280;25829;50.228;18.936;2023-06-10T11:06:56;98469.03;;;20.53;60.24
40117;BME280;25829;50.228;18.936;2023-06-10T11:16:19;98464.44;;;20.64;60.01
40117;BME280;25829;50.228;18.936;2023-06-10T11:19:36;98456.38;;;20.69;59.43
40117;BME280;25829;50.228;18.936;2023-06-10T11:22:58;98463.88;;;20.72;59.83
40117;BME280;25829;50.228;18.936;2023-06-10T11:29:31;98472.91;;;20.91;60.58
40117;BME280;25829;50.228;18.936;2023-06-10T11:32:34;98471.56;;;20.99;60.48
40117;BME280;25829;50.228;18.936;2023-06-10T11:35:35;98461.84;;;21.08;59.92
40117;BME280;25829;50.228;18.936;2023-06-10T11:38:36;98463.47;;;21.09;60.17
40117;BME280;25829;50.228;18.936;2023-06-10T11:41:38;98472.84;;;21.02;60.04
40117;BME280;25829;50.228;18.936;2023-06-10T11:44:48;98471.56;;;20.94;60.29
40117;BME280;25829;50.228;18.936;2023-06-10T11:48:04;98466.78;;;20.81;60.28
40117;BME280;25829;50.228;18.936;2023-06-10T11:51:17;98466.81;;;20.75;61.51
40117;BME280;25829;50.228;18.936;2023-06-10T11:54:18;98457.41;;;20.83;60.63
40117;BME280;25829;50.228;18.936;2023-06-10T11:57:19;98460.34;;;20.87;60.96
40117;BME280;25829;50.228;18.936;2023-06-10T12:00:20;98453.06;;;20.92;60.25
40117;BME280;25829;50.228;18.936;2023-06-10T12:03:22;98439.13;;;20.95;59.47
40117;BME280;25829;50.228;18.936;2023-06-10T12:06:23;98449.03;;;20.95;60.13
40117;BME280;25829;50.228;18.936;2023-06-10T12:09:30;98456.50;;;20.98;59.11
40117;BME280;25829;50.228;18.936;2023-06-10T12:12:35;98441.16;;;21.09;59.68
40117;BME280;25829;50.228;18.936;2023-06-10T12:15:37;98445.44;;;21.20;60.34
40117;BME280;25829;50.228;18.936;2023-06-10T12:18:38;98442.66;;;21.35;59.65
40117;BME280;25829;50.228;18.936;2023-06-10T12:21:38;98436.72;;;21.43;59.00
40117;BME280;25829;50.228;18.936;2023-06-10T12:24:57;98450.56;;;21.56;57.79
40117;BME280;25829;50.228;18.936;2023-06-10T12:28:04;98442.00;;;21.54;58.49
40117;BME280;25829;50.228;18.936;2023-06-10T12:31:08;98436.06;;;21.57;57.96
40117;BME280;25829;50.228;18.936;2023-06-10T12:34:09;98438.19;;;21.60;58.40
40117;BME280;25829;50.228;18.936;2023-06-10T12:37:11;98430.13;;;21.60;57.98
40117;BME280;25829;50.228;18.936;2023-06-10T12:40:15;98432.31;;;21.58;58.28
40117;BME280;25829;50.228;18.936;2023-06-10T12:43:33;98441.66;;;21.60;58.49
40117;BME280;25829;50.228;18.936;2023-06-10T12:46:37;98439.31;;;21.54;56.15
40117;BME280;25829;50.228;18.936;2023-06-10T12:49:39;98444.13;;;21.57;56.51
40117;BME280;25829;50.228;18.936;2023-06-10T12:52:42;98435.25;;;21.61;56.86
40117;BME280;25829;50.228;18.936;2023-06-10T12:55:43;98442.97;;;21.68;57.38
40117;BME280;25829;50.228;18.936;2023-06-10T12:58:45;98441.59;;;21.70;57.01
40117;BME280;25829;50.228;18.936;2023-06-10T13:01:51;98436.78;;;21.67;56.24
40117;BME280;25829;50.228;18.936;2023-06-10T13:04:56;98436.00;;;21.67;56.27
40117;BME280;25829;50.228;18.936;2023-06-10T13:07:58;98439.47;;;21.67;56.79
40117;BME280;25829;50.228;18.936;2023-06-10T13:10:59;98434.63;;;21.69;56.83
40117;BME280;25829;50.228;18.936;2023-06-10T13:13:59;98433.78;;;21.74;56.96
40117;BME280;25829;50.228;18.936;2023-06-10T13:17:13;98428.63;;;21.83;56.36
40117;BME280;25829;50.228;18.936;2023-06-10T13:20:14;98422.13;;;21.89;56.71
40117;BME280;25829;50.228;18.936;2023-06-10T13:23:16;98418.63;;;21.93;56.13
40117;BME280;25829;50.228;18.936;2023-06-10T13:26:17;98413.41;;;22.02;56.49
40117;BME280;25829;50.228;18.936;2023-06-10T13:29:18;98416.00;;;22.12;55.67
40117;BME280;25829;50.228;18.936;2023-06-10T13:32:19;98414.13;;;22.13;55.80
40117;BME280;25829;50.228;18.936;2023-06-10T13:35:20;98412.81;;;22.10;56.05
40117;BME280;25829;50.228;18.936;2023-06-10T13:38:23;98414.97;;;22.08;56.09
40117;BME280;25829;50.228;18.936;2023-06-10T13:41:28;98424.38;;;22.06;55.85
40117;BME280;25829;50.228;18.936;2023-06-10T13:44:29;98401.38;;;22.00;55.38
40117;BME280;25829;50.228;18.936;2023-06-10T13:47:33;98411.81;;;22.01;56.12
40117;BME280;25829;50.228;18.936;2023-06-10T13:50:34;98418.00;;;22.02;55.59
40117;BME280;25829;50.228;18.936;2023-06-10T13:53:36;98409.59;;;22.08;55.76
40117;BME280;25829;50.228;18.936;2023-06-10T13:56:37;98416.81;;;22.13;56.41
40117;BME280;25829;50.228;18.936;2023-06-10T13:59:39;98406.34;;;22.11;56.34
40117;BME280;25829;50.228;18.936;2023-06-10T14:02:40;98400.75;;;22.08;56.50
40117;BME280;25829;50.228;18.936;2023-06-10T14:05:41;98406.19;;;22.03;56.42
40117;BME280;25829;50.228;18.936;2023-06-10T14:08:42;98407.06;;;21.93;56.37
40117;BME280;25829;50.228;18.936;2023-06-10T14:11:43;98400.44;;;21.80;55.54
40117;BME280;25829;50.228;18.936;2023-06-10T14:14:44;98412.13;;;21.65;56.25
40117;BME280;25829;50.228;18.936;2023-06-10T14:17:44;98406.28;;;21.58;56.87
40117;BME280;25829;50.228;18.936;2023-06-10T14:20:45;98403.91;;;21.52;56.39
40117;BME280;25829;50.228;18.936;2023-06-10T14:23:46;98408.00;;;21.44;56.66
40117;BME280;25829;50.228;18.936;2023-06-10T14:26:50;98414.19;;;21.39;57.18
40117;BME280;25829;50.228;18.936;2023-06-10T14:29:51;98409.13;;;21.33;56.99
40117;BME280;25829;50.228;18.936;2023-06-10T14:32:52;98412.41;;;21.25;56.69
40117;BME280;25829;50.228;18.936;2023-06-10T14:35:52;98428.06;;;21.07;54.82
40117;BME280;25829;50.228;18.936;2023-06-10T14:38:53;98437.28;;;20.86;52.85
40117;BME280;25829;50.228;18.936;2023-06-10T14:41:54;98440.59;;;20.62;53.38
40117;BME280;25829;50.228;18.936;2023-06-10T14:44:54;98437.69;;;20.38;55.21
40117;BME280;25829;50.228;18.936;2023-06-10T14:47:55;98441.78;;;20.05;57.10
40117;BME280;25829;50.228;18.936;2023-06-10T14:50:56;98439.09;;;19.69;58.63
40117;BME280;25829;50.228;18.936;2023-06-10T14:53:57;98433.72;;;19.49;59.58
40117;BME280;25829;50.228;18.936;2023-06-10T14:56:58;98440.09;;;19.27;59.67
40117;BME280;25829;50.228;18.936;2023-06-10T14:59:59;98449.19;;;19.16;60.19
40117;BME280;25829;50.228;18.936;2023-06-10T15:03:00;98443.53;;;19.02;61.18
40117;BME280;25829;50.228;18.936;2023-06-10T15:06:01;98438.66;;;18.89;61.36
40117;BME280;25829;50.228;18.936;2023-06-10T15:09:01;98451.16;;;18.83;62.33
40117;BME280;25829;50.228;18.936;2023-06-10T15:12:02;98442.31;;;18.73;63.35
40117;BME280;25829;50.228;18.936;2023-06-10T15:15:04;98463.13;;;18.66;63.90
40117;BME280;25829;50.228;18.936;2023-06-10T15:18:05;98445.22;;;18.66;64.75
40117;BME280;25829;50.228;18.936;2023-06-10T15:21:06;98454.88;;;18.72;65.02
40117;BME280;25829;50.228;18.936;2023-06-10T15:24:07;98460.50;;;18.76;65.58
40117;BME280;25829;50.228;18.936;2023-06-10T15:27:08;98453.84;;;18.78;65.87
40117;BME280;25829;50.228;18.936;2023-06-10T15:30:09;98454.91;;;18.82;66.19
40117;BME280;25829;50.228;18.936;2023-06-10T15:33:10;98458.38;;;18.83;66.34
40117;BME280;25829;50.228;18.936;2023-06-10T15:36:10;98466.13;;;18.79;66.59
40117;BME280;25829;50.228;18.936;2023-06-10T15:39:13;98462.66;;;18.79;66.83
40117;BME280;25829;50.228;18.936;2023-06-10T15:42:14;98465.31;;;18.74;67.37
40117;BME280;25829;50.228;18.936;2023-06-10T15:45:15;98459.41;;;18.72;67.61
40117;BME280;25829;50.228;18.936;2023-06-10T15:48:15;98464.19;;;18.70;67.87
40117;BME280;25829;50.228;18.936;2023-06-10T15:51:16;98465.84;;;18.71;67.95
40117;BME280;25829;50.228;18.936;2023-06-10T15:54:17;98465.03;;;18.75;68.12
40117;BME280;25829;50.228;18.936;2023-06-10T15:57:17;98464.00;;;18.81;68.28
40117;BME280;25829;50.228;18.936;2023-06-10T16:00:22;98464.88;;;18.92;68.09
40117;BME280;25829;50.228;18.936;2023-06-10T16:03:23;98460.63;;;18.96;68.10
40117;BME280;25829;50.228;18.936;2023-06-10T16:06:23;98467.56;;;18.97;68.13
40117;BME280;25829;50.228;18.936;2023-06-10T16:09:24;98464.38;;;19.00;68.06
40117;BME280;25829;50.228;18.936;2023-06-10T16:12:25;98458.78;;;19.07;68.32
40117;BME280;25829;50.228;18.936;2023-06-10T16:15:26;98452.38;;;19.13;68.29